createdAt,value
2017-09-12T00:02:21.985Z,79.40
2017-09-12T00:04:50.212Z,79.20
2017-09-12T00:07:19.225Z,78.80
2017-09-12T00:09:47.461Z,78.80
2017-09-12T00:12:15.722Z,78.60
2017-09-12T00:14:43.952Z,78.60
2017-09-12T00:17:12.202Z,78.80
2017-09-12T00:19:41.204Z,79.40
2017-09-12T00:22:10.221Z,79.20
2017-09-12T00:24:38.441Z,79.30
2017-09-12T00:27:06.681Z,79.20
2017-09-12T00:29:34.921Z,79.00
2017-09-12T00:32:03.916Z,79.30
2017-09-12T00:34:32.925Z,79.50
2017-09-12T00:37:01.152Z,79.50
2017-09-12T00:39:29.392Z,79.50
2017-09-12T00:41:57.625Z,79.00
2017-09-12T00:44:26.710Z,78.50
2017-09-12T00:46:54.943Z,78.40
2017-09-12T00:49:23.191Z,78.40
2017-09-12T00:51:51.418Z,78.50
2017-09-12T00:54:19.666Z,78.60
2017-09-12T00:56:47.957Z,78.60
2017-09-12T00:59:16.196Z,78.40
2017-09-12T01:01:44.431Z,78.20
2017-09-12T01:04:12.680Z,78.20
2017-09-12T01:06:41.469Z,78.30
2017-09-12T01:09:09.715Z,78.30
2017-09-12T01:11:37.945Z,78.70
2017-09-12T01:14:06.186Z,78.60
2017-09-12T01:16:34.415Z,78.80
2017-09-12T01:19:03.416Z,78.60
2017-09-12T01:21:32.404Z,78.70
2017-09-12T01:24:01.405Z,78.50
2017-09-12T01:26:30.420Z,78.30
2017-09-12T01:28:58.649Z,78.30
2017-09-12T01:31:26.894Z,78.50
2017-09-12T01:33:55.125Z,78.60
2017-09-12T01:36:23.377Z,78.40
2017-09-12T01:38:52.152Z,78.70
2017-09-12T01:41:20.389Z,78.70
2017-09-12T01:43:48.622Z,78.60
2017-09-12T01:46:16.865Z,78.60
2017-09-12T01:48:45.898Z,78.70
2017-09-12T01:51:14.908Z,79.00
2017-09-12T01:53:43.135Z,79.00
2017-09-12T01:56:11.378Z,79.20
2017-09-12T01:58:39.605Z,79.40
2017-09-12T02:01:07.852Z,79.70
2017-09-12T02:03:36.092Z,80.40
2017-09-12T02:06:04.338Z,79.90
2017-09-12T02:08:33.334Z,80.10
2017-09-12T02:11:02.352Z,79.90
2017-09-12T02:13:30.592Z,79.90
2017-09-12T02:15:58.843Z,80.00
2017-09-12T02:18:27.069Z,80.00
2017-09-12T02:20:55.423Z,79.80
2017-09-12T02:23:23.662Z,79.80
2017-09-12T02:25:51.901Z,79.60
2017-09-12T02:28:20.900Z,79.60
2017-09-12T02:30:49.159Z,79.60
2017-09-12T02:33:17.402Z,79.70
2017-09-12T02:35:45.642Z,79.60
2017-09-12T02:38:13.882Z,79.60
2017-09-12T02:40:42.872Z,79.80
2017-09-12T02:43:11.894Z,79.80
2017-09-12T02:45:40.133Z,80.60
2017-09-12T02:48:08.394Z,80.00
2017-09-12T02:50:38.132Z,80.30
2017-09-12T02:53:07.144Z,80.40
2017-09-12T02:55:35.373Z,80.30
2017-09-12T02:58:03.623Z,80.50
2017-09-12T03:00:31.879Z,80.40
2017-09-12T03:03:00.123Z,80.30
2017-09-12T03:05:29.112Z,80.40
2017-09-12T03:07:57.364Z,80.40
2017-09-12T03:10:25.598Z,80.60
2017-09-12T03:12:53.857Z,80.90
2017-09-12T03:15:22.082Z,81.10
2017-09-12T03:17:50.334Z,81.30
2017-09-12T03:20:18.564Z,81.80
2017-09-12T03:22:47.582Z,82.40
2017-09-12T03:25:16.576Z,82.50
2017-09-12T03:27:44.814Z,82.40
2017-09-12T03:30:13.060Z,82.50
2017-09-12T03:32:41.301Z,82.60
2017-09-12T03:35:09.534Z,82.60
2017-09-12T03:37:37.788Z,82.50
2017-09-12T03:40:06.013Z,82.70
2017-09-12T03:42:35.030Z,82.70
2017-09-12T03:45:03.257Z,82.70
2017-09-12T03:47:31.491Z,82.70
2017-09-12T03:49:59.737Z,82.70
2017-09-12T03:52:28.737Z,82.80
2017-09-12T03:54:57.019Z,82.60
2017-09-12T03:57:25.359Z,82.70
2017-09-12T03:59:53.585Z,83.00
2017-09-12T04:02:21.818Z,83.20
2017-09-12T04:04:50.844Z,83.40
2017-09-12T04:07:19.075Z,83.20
2017-09-12T04:09:47.309Z,83.30
2017-09-12T04:12:15.554Z,83.40
2017-09-12T04:14:44.569Z,83.50
2017-09-12T04:17:12.806Z,83.50
2017-09-12T04:19:41.821Z,83.50
2017-09-12T04:22:10.060Z,83.40
2017-09-12T04:24:38.308Z,83.40
2017-09-12T04:27:06.539Z,83.60
2017-09-12T04:29:35.554Z,83.50
2017-09-12T04:32:03.810Z,83.40
2017-09-12T04:34:32.827Z,83.70
2017-09-12T04:37:01.053Z,83.60
2017-09-12T04:39:29.304Z,83.70
2017-09-12T04:41:57.541Z,83.70
2017-09-12T04:44:25.801Z,83.90
2017-09-12T04:46:54.800Z,83.70
2017-09-12T04:49:23.800Z,83.80
2017-09-12T04:51:52.054Z,83.70
2017-09-12T04:54:21.061Z,83.80
2017-09-12T04:56:50.901Z,83.70
2017-09-12T04:59:19.141Z,83.70
2017-09-12T05:01:48.149Z,84.70
2017-09-12T05:04:16.381Z,84.60
2017-09-12T05:06:44.638Z,84.60
2017-09-12T05:09:12.870Z,84.30
2017-09-12T05:11:41.880Z,83.60
2017-09-12T05:14:10.116Z,83.60
2017-09-12T05:16:38.361Z,83.50
2017-09-12T05:19:06.597Z,83.50
2017-09-12T05:21:34.846Z,83.50
2017-09-12T05:24:03.080Z,83.40
2017-09-12T05:26:31.317Z,83.70
2017-09-12T05:29:00.312Z,84.80
2017-09-12T05:31:28.556Z,84.80
2017-09-12T05:33:56.858Z,85.50
2017-09-12T05:36:25.072Z,85.60
2017-09-12T05:38:53.305Z,86.60
2017-09-12T05:41:22.316Z,85.90
2017-09-12T05:43:50.549Z,85.80
2017-09-12T05:46:18.792Z,85.80
2017-09-12T05:48:47.023Z,85.70
2017-09-12T05:51:16.050Z,85.20
2017-09-12T05:53:44.278Z,85.20
2017-09-12T05:56:12.517Z,85.00
2017-09-12T05:58:40.748Z,84.50
2017-09-12T06:01:09.745Z,84.80
2017-09-12T06:03:38.752Z,84.60
2017-09-12T06:06:06.992Z,84.60
2017-09-12T06:08:35.239Z,84.40
2017-09-12T06:11:03.481Z,83.90
2017-09-12T06:13:31.744Z,83.90
2017-09-12T06:16:01.295Z,82.70
2017-09-12T06:18:29.544Z,82.70
2017-09-12T06:20:57.777Z,83.80
2017-09-12T06:23:26.026Z,82.10
2017-09-12T06:25:54.248Z,81.80
2017-09-12T06:28:23.269Z,80.50
2017-09-12T06:30:51.515Z,80.50
2017-09-12T06:33:20.513Z,77.80
2017-09-12T06:35:49.503Z,78.00
2017-09-12T06:38:18.513Z,77.80
2017-09-12T06:40:46.748Z,77.80
2017-09-12T06:43:14.999Z,77.40
2017-09-12T06:45:43.234Z,77.30
2017-09-12T06:48:11.473Z,77.00
2017-09-12T06:50:39.718Z,76.80
2017-09-12T06:53:07.972Z,76.40
2017-09-12T06:55:36.207Z,75.20
2017-09-12T06:58:04.448Z,74.90
2017-09-12T07:00:32.689Z,75.10
2017-09-12T07:03:00.932Z,75.50
2017-09-12T07:05:29.186Z,75.50
2017-09-12T07:07:57.445Z,74.10
2017-09-12T07:10:25.664Z,74.90
2017-09-12T07:12:53.908Z,74.20
2017-09-12T07:15:22.178Z,73.00
2017-09-12T07:17:50.397Z,73.00
2017-09-12T07:20:19.405Z,73.80
2017-09-12T07:22:47.648Z,73.80
2017-09-12T07:25:15.892Z,73.30
2017-09-12T07:27:44.138Z,73.10
2017-09-12T07:30:12.376Z,73.50
2017-09-12T07:32:40.605Z,74.10
2017-09-12T07:35:08.847Z,73.60
2017-09-12T07:37:37.837Z,74.90
2017-09-12T07:40:06.857Z,75.10
2017-09-12T07:42:35.081Z,75.10
2017-09-12T07:45:03.332Z,75.70
2017-09-12T07:47:31.568Z,75.60
2017-09-12T07:49:59.817Z,76.60
2017-09-12T07:52:28.061Z,75.40
2017-09-12T07:54:56.409Z,76.80
2017-09-12T07:57:24.632Z,77.10
2017-09-12T07:59:52.884Z,77.90
2017-09-12T08:02:21.119Z,77.20
2017-09-12T08:04:50.125Z,78.10
2017-09-12T08:07:18.352Z,78.10
2017-09-12T08:09:46.600Z,78.40
2017-09-12T08:12:14.828Z,78.10
2017-09-12T08:14:43.841Z,79.30
2017-09-12T08:17:12.065Z,79.10
2017-09-12T08:19:40.310Z,79.00
2017-09-12T08:22:08.532Z,78.70
2017-09-12T08:24:36.759Z,77.80
2017-09-12T08:27:05.010Z,77.90
2017-09-12T08:29:34.000Z,77.90
2017-09-12T08:32:03.008Z,77.40
2017-09-12T08:34:31.257Z,77.40
2017-09-12T08:36:59.505Z,76.80
2017-09-12T08:39:27.740Z,75.10
2017-09-12T08:41:55.982Z,72.80
2017-09-12T08:44:24.980Z,68.70
2017-09-12T08:46:54.003Z,67.90
2017-09-12T08:49:22.237Z,67.80
2017-09-12T08:51:50.472Z,66.20
2017-09-12T08:54:18.725Z,65.40
2017-09-12T08:56:46.970Z,64.60
2017-09-12T08:59:15.201Z,63.70
2017-09-12T09:01:43.449Z,62.40
2017-09-12T09:04:11.684Z,63.50
2017-09-12T09:06:39.934Z,62.80
2017-09-12T09:09:08.150Z,61.80
2017-09-12T09:11:37.160Z,60.10
2017-09-12T09:14:06.174Z,60.80
2017-09-12T09:16:34.417Z,60.80
2017-09-12T09:19:03.415Z,59.30
2017-09-12T09:21:32.430Z,58.30
2017-09-12T09:24:00.661Z,58.90
2017-09-12T09:26:28.916Z,57.60
2017-09-12T09:28:57.171Z,56.50
2017-09-12T09:31:25.450Z,57.30
2017-09-12T09:33:53.691Z,57.10
2017-09-12T09:36:21.926Z,56.30
2017-09-12T09:38:50.208Z,56.10
2017-09-12T09:41:18.477Z,55.30
2017-09-12T09:43:46.735Z,55.10
2017-09-12T09:46:14.988Z,54.80
2017-09-12T09:48:43.998Z,55.70
2017-09-12T09:51:12.243Z,55.70
2017-09-12T09:53:40.502Z,56.10
2017-09-12T09:56:08.747Z,56.30
2017-09-12T09:58:37.003Z,57.30
2017-09-12T10:01:06.031Z,58.40
2017-09-12T10:03:34.306Z,58.40
2017-09-12T10:06:02.550Z,58.50
2017-09-12T10:08:31.571Z,59.40
2017-09-12T10:10:59.818Z,58.50
2017-09-12T10:13:28.093Z,57.80
2017-09-12T10:15:56.345Z,57.10
2017-09-12T10:18:24.596Z,57.50
2017-09-12T10:20:52.850Z,57.30
2017-09-12T10:23:21.109Z,56.90
2017-09-12T10:25:49.351Z,57.40
2017-09-12T10:28:17.612Z,58.20
2017-09-12T10:30:46.607Z,59.60
2017-09-12T10:33:15.636Z,60.30
2017-09-12T10:35:43.877Z,60.30
2017-09-12T10:38:12.910Z,60.60
2017-09-12T10:40:41.716Z,60.50
2017-09-12T10:43:09.955Z,61.20
2017-09-12T10:45:38.218Z,61.30
2017-09-12T10:48:06.482Z,61.60
2017-09-12T10:50:36.288Z,59.10
2017-09-12T10:53:04.948Z,59.00
2017-09-12T10:55:33.198Z,58.70
2017-09-12T10:58:02.198Z,58.30
2017-09-12T11:00:31.216Z,57.20
2017-09-12T11:02:59.460Z,57.10
2017-09-12T11:05:27.727Z,56.40
2017-09-12T11:07:55.987Z,56.80
2017-09-12T11:10:24.246Z,56.70
2017-09-12T11:12:52.486Z,56.90
2017-09-12T11:15:20.742Z,56.90
2017-09-12T11:17:48.983Z,57.70
2017-09-12T11:20:17.242Z,57.10
2017-09-12T11:22:46.255Z,57.10
2017-09-12T11:25:14.517Z,57.10
2017-09-12T11:27:43.526Z,58.20
2017-09-12T11:30:11.810Z,58.20
2017-09-12T11:32:40.062Z,58.00
2017-09-12T11:35:08.967Z,57.30
2017-09-12T11:37:37.999Z,56.90
2017-09-12T11:40:06.248Z,56.90
2017-09-12T11:42:35.259Z,56.90
2017-09-12T11:45:03.566Z,56.90
2017-09-12T11:47:31.811Z,56.60
2017-09-12T11:50:00.861Z,54.80
2017-09-12T11:52:29.120Z,54.70
2017-09-12T11:54:57.379Z,55.90
2017-09-12T11:57:26.433Z,57.20
2017-09-12T11:59:54.670Z,57.20
2017-09-12T12:02:22.934Z,57.60
2017-09-12T12:04:51.938Z,56.60
2017-09-12T12:07:20.956Z,56.10
2017-09-12T12:09:49.198Z,56.10
2017-09-12T12:12:18.227Z,57.60
2017-09-12T12:14:46.470Z,57.50
2017-09-12T12:17:14.725Z,57.50
2017-09-12T12:19:42.966Z,57.70
2017-09-12T12:22:11.227Z,57.90
2017-09-12T12:24:40.240Z,58.10
2017-09-12T12:27:08.509Z,58.10
2017-09-12T12:29:37.520Z,58.60
2017-09-12T12:32:05.786Z,58.50
2017-09-12T12:34:34.033Z,58.40
2017-09-12T12:37:02.282Z,58.60
2017-09-12T12:39:30.528Z,57.00
2017-09-12T12:41:59.555Z,55.60
2017-09-12T12:44:27.829Z,55.50
2017-09-12T12:46:57.153Z,54.70
2017-09-12T12:49:25.379Z,54.70
2017-09-12T12:51:53.651Z,55.20
2017-09-12T12:54:21.885Z,55.30
2017-09-12T12:56:50.150Z,53.40
2017-09-12T12:59:19.153Z,51.50
2017-09-12T13:01:47.427Z,51.50
2017-09-12T13:04:16.624Z,51.80
2017-09-12T13:06:44.871Z,51.80
2017-09-12T13:09:13.118Z,51.40
2017-09-12T13:11:42.426Z,51.00
2017-09-12T13:14:10.675Z,50.80
2017-09-12T13:16:39.685Z,50.10
2017-09-12T13:19:08.046Z,50.10
2017-09-12T13:21:37.080Z,50.40
2017-09-12T13:24:05.365Z,50.40
2017-09-12T13:26:33.625Z,50.90
2017-09-12T13:29:01.897Z,50.40
2017-09-12T13:31:30.387Z,51.00
2017-09-12T13:33:58.645Z,51.60
2017-09-12T13:36:27.652Z,50.80
2017-09-12T13:38:56.678Z,50.90
2017-09-12T13:41:24.931Z,50.90
2017-09-12T13:43:53.949Z,50.70
2017-09-12T13:46:22.191Z,50.60
2017-09-12T13:48:50.462Z,49.70
2017-09-12T13:51:18.720Z,52.10
2017-09-12T13:53:46.974Z,53.40
2017-09-12T13:56:15.216Z,53.80
2017-09-12T13:58:43.479Z,54.30
2017-09-12T14:01:11.726Z,54.50
2017-09-12T14:03:39.987Z,55.10
2017-09-12T14:06:08.995Z,55.30
2017-09-12T14:08:37.256Z,55.30
2017-09-12T14:11:06.278Z,54.70
2017-09-12T14:13:34.549Z,54.70
2017-09-12T14:16:02.796Z,54.60
2017-09-12T14:18:31.056Z,54.50
2017-09-12T14:20:59.307Z,55.50
2017-09-12T14:23:28.223Z,57.20
2017-09-12T14:25:57.279Z,66.10
2017-09-12T14:28:26.287Z,66.30
2017-09-12T14:30:54.677Z,66.30
2017-09-12T14:33:23.667Z,61.90
2017-09-12T14:35:51.931Z,61.80
2017-09-12T14:38:20.946Z,62.80
2017-09-12T14:40:50.055Z,62.80
2017-09-12T14:43:18.296Z,61.60
2017-09-12T14:45:46.569Z,61.00
2017-09-12T14:48:16.354Z,59.70
2017-09-12T14:50:44.634Z,59.70
2017-09-12T14:53:12.885Z,59.80
2017-09-12T14:55:41.903Z,59.80
2017-09-12T14:58:10.155Z,59.80
2017-09-12T15:00:38.437Z,59.90
2017-09-12T15:03:07.450Z,59.30
2017-09-12T15:05:35.708Z,59.20
2017-09-12T15:08:04.743Z,52.90
2017-09-12T15:10:33.010Z,52.80
2017-09-12T15:13:01.258Z,51.60
2017-09-12T15:15:30.284Z,52.20
2017-09-12T15:17:58.530Z,52.10
2017-09-12T15:20:27.416Z,52.60
2017-09-12T15:22:56.463Z,53.70
2017-09-12T15:25:24.726Z,53.60
2017-09-12T15:27:54.240Z,54.20
2017-09-12T15:30:23.268Z,54.90
2017-09-12T15:32:51.508Z,54.90
2017-09-12T15:35:20.546Z,54.90
2017-09-12T15:37:48.786Z,55.50
2017-09-12T15:40:17.038Z,54.90
2017-09-12T15:42:45.311Z,57.60
2017-09-12T15:45:13.563Z,59.90
2017-09-12T15:47:41.814Z,62.90
2017-09-12T15:50:10.823Z,67.20
2017-09-12T15:52:39.898Z,66.90
2017-09-12T15:55:08.147Z,66.90
2017-09-12T15:57:36.471Z,66.70
2017-09-12T16:00:05.580Z,64.40
2017-09-12T16:02:34.788Z,65.10
2017-09-12T16:05:03.044Z,65.00
2017-09-12T16:07:31.327Z,65.30
2017-09-12T16:10:00.337Z,66.20
2017-09-12T16:12:29.362Z,64.70
2017-09-12T16:14:57.606Z,64.80
2017-09-12T16:17:26.658Z,68.80
2017-09-12T16:19:54.916Z,69.40
2017-09-12T16:22:23.200Z,66.50
2017-09-12T16:24:51.440Z,66.00
2017-09-12T16:27:19.707Z,67.70
2017-09-12T16:29:49.453Z,71.20
2017-09-12T16:32:18.488Z,71.30
2017-09-12T16:34:46.733Z,71.30
2017-09-12T16:37:15.766Z,72.00
2017-09-12T16:39:44.008Z,71.90
2017-09-12T16:42:13.039Z,71.30
2017-09-12T16:44:41.282Z,71.30
2017-09-12T16:47:10.328Z,68.80
2017-09-12T16:49:38.576Z,68.80
2017-09-12T16:52:07.593Z,68.10
2017-09-12T16:54:35.887Z,68.00
2017-09-12T16:57:04.140Z,68.50
2017-09-12T16:59:33.196Z,69.00
2017-09-12T17:02:01.719Z,68.90
2017-09-12T17:04:29.956Z,69.00
2017-09-12T17:06:58.243Z,68.70
2017-09-12T17:09:26.487Z,70.90
2017-09-12T17:11:54.728Z,72.30
2017-09-12T17:14:23.750Z,71.00
2017-09-12T17:16:52.004Z,71.00
2017-09-12T17:19:21.027Z,69.40
2017-09-12T17:21:49.268Z,69.40
2017-09-12T17:24:19.053Z,70.80
2017-09-12T17:26:47.319Z,70.70
2017-09-12T17:29:15.703Z,72.00
2017-09-12T17:31:43.951Z,70.00
2017-09-12T17:34:12.974Z,70.20
2017-09-12T17:36:41.261Z,70.20
2017-09-12T17:39:09.517Z,68.00
2017-09-12T17:41:38.532Z,69.50
2017-09-12T17:44:06.827Z,69.60
2017-09-12T17:46:35.056Z,69.40
2017-09-12T17:49:04.091Z,70.00
2017-09-12T17:51:32.333Z,70.00
2017-09-12T17:54:01.351Z,70.50
2017-09-12T17:56:29.601Z,70.30
2017-09-12T17:58:58.013Z,70.90
2017-09-12T18:01:26.257Z,70.50
2017-09-12T18:03:54.494Z,70.60
2017-09-12T18:06:22.745Z,70.20
2017-09-12T18:08:51.763Z,71.80
2017-09-12T18:11:20.018Z,71.80
2017-09-12T18:13:49.029Z,73.00
2017-09-12T18:16:18.050Z,73.50
2017-09-12T18:18:46.347Z,73.40
2017-09-12T18:21:14.583Z,74.20
2017-09-12T18:23:42.827Z,74.40
2017-09-12T18:26:11.098Z,74.40
2017-09-12T18:28:39.449Z,74.60
2017-09-12T18:31:07.718Z,74.50
2017-09-12T18:33:36.730Z,74.30
2017-09-12T18:36:04.991Z,74.30
2017-09-12T18:38:34.007Z,74.60
2017-09-12T18:41:02.376Z,74.40
2017-09-12T18:43:31.439Z,74.40
2017-09-12T18:45:59.833Z,74.40
2017-09-12T18:48:29.888Z,74.80
2017-09-12T18:50:59.023Z,75.10
2017-09-12T18:53:27.269Z,75.00
2017-09-12T18:55:55.532Z,74.70
2017-09-12T18:58:24.554Z,75.10
2017-09-12T19:00:52.807Z,75.10
2017-09-12T19:03:21.818Z,77.00
2017-09-12T19:05:50.080Z,77.00
2017-09-12T19:08:19.095Z,76.40
2017-09-12T19:10:48.111Z,75.80
2017-09-12T19:13:16.357Z,75.80
2017-09-12T19:15:45.538Z,75.50
2017-09-12T19:18:13.795Z,75.50
2017-09-12T19:20:42.038Z,75.60
2017-09-12T19:23:11.097Z,75.50
2017-09-12T19:25:39.373Z,75.50
2017-09-12T19:28:07.614Z,75.60
2017-09-12T19:30:35.861Z,75.60
2017-09-12T19:33:04.148Z,75.50
2017-09-12T19:35:33.399Z,75.50
2017-09-12T19:38:01.684Z,75.40
2017-09-12T19:40:29.944Z,75.60
2017-09-12T19:42:58.236Z,75.80
2017-09-12T19:45:26.488Z,76.20
2017-09-12T19:47:55.502Z,76.80
2017-09-12T19:50:23.760Z,76.80
2017-09-12T19:52:52.782Z,77.40
2017-09-12T19:55:21.069Z,77.30
2017-09-12T19:57:49.328Z,78.60
2017-09-12T20:00:17.570Z,78.20
2017-09-12T20:02:45.809Z,78.40
2017-09-12T20:05:14.064Z,78.60
2017-09-12T20:07:43.154Z,79.50
2017-09-12T20:10:12.158Z,79.90
2017-09-12T20:12:41.238Z,80.10
2017-09-12T20:15:09.497Z,80.10
2017-09-12T20:17:37.768Z,80.40
2017-09-12T20:20:06.011Z,81.10
2017-09-12T20:22:34.270Z,80.90
2017-09-12T20:25:03.280Z,81.90
2017-09-12T20:27:32.315Z,82.10
2017-09-12T20:30:00.560Z,82.10
2017-09-12T20:32:29.567Z,82.80
2017-09-12T20:34:57.841Z,82.70
2017-09-12T20:37:26.847Z,83.90
2017-09-12T20:39:55.106Z,83.90
2017-09-12T20:42:24.122Z,85.10
2017-09-12T20:44:52.424Z,85.10
2017-09-12T20:47:21.412Z,86.30
2017-09-12T20:49:49.703Z,86.40
2017-09-12T20:52:17.951Z,87.00
2017-09-12T20:54:47.007Z,87.60
2017-09-12T20:57:15.259Z,87.50
2017-09-12T20:59:43.531Z,87.50
2017-09-12T21:02:11.802Z,87.20
2017-09-12T21:04:40.810Z,86.30
2017-09-12T21:07:09.039Z,86.10
2017-09-12T21:09:37.306Z,86.20
2017-09-12T21:12:05.591Z,86.40
2017-09-12T21:14:33.841Z,86.10
2017-09-12T21:17:02.085Z,85.70
2017-09-12T21:19:31.111Z,86.00
2017-09-12T21:21:59.352Z,86.10
2017-09-12T21:24:29.119Z,86.20
2017-09-12T21:26:57.368Z,86.10
2017-09-12T21:29:26.392Z,85.90
2017-09-12T21:31:54.638Z,85.90
2017-09-12T21:34:22.926Z,86.10
2017-09-12T21:36:51.931Z,84.90
2017-09-12T21:39:20.979Z,84.60
2017-09-12T21:41:49.223Z,84.50
2017-09-12T21:44:17.482Z,84.20
2017-09-12T21:46:46.527Z,84.60
2017-09-12T21:49:14.748Z,83.80
2017-09-12T21:51:43.012Z,83.90
2017-09-12T21:54:11.246Z,83.60
2017-09-12T21:56:39.546Z,83.80
2017-09-12T21:59:07.819Z,83.70
2017-09-12T22:01:36.083Z,83.80
2017-09-12T22:04:05.111Z,84.00
2017-09-12T22:06:33.387Z,84.00
2017-09-12T22:09:01.636Z,83.60
2017-09-12T22:11:30.663Z,83.00
2017-09-12T22:13:58.941Z,83.10
2017-09-12T22:16:27.199Z,83.00
2017-09-12T22:18:56.218Z,83.00
2017-09-12T22:21:24.481Z,82.80
2017-09-12T22:23:53.495Z,82.80
2017-09-12T22:26:21.762Z,82.80
2017-09-12T22:28:50.011Z,82.90
2017-09-12T22:31:18.264Z,83.00
2017-09-12T22:33:46.507Z,82.90
2017-09-12T22:36:14.782Z,83.10
2017-09-12T22:38:43.029Z,82.90
2017-09-12T22:41:11.291Z,82.90
2017-09-12T22:43:39.539Z,83.00
2017-09-12T22:46:07.805Z,83.10
2017-09-12T22:48:36.807Z,82.90
2017-09-12T22:51:05.071Z,82.90
2017-09-12T22:53:34.089Z,83.00
2017-09-12T22:56:02.384Z,83.00
2017-09-12T22:58:30.625Z,83.20
2017-09-12T23:00:59.648Z,83.70
2017-09-12T23:03:28.657Z,83.90
2017-09-12T23:05:56.911Z,83.90
2017-09-12T23:08:25.935Z,84.10
2017-09-12T23:10:54.183Z,84.00
2017-09-12T23:13:23.209Z,84.20
2017-09-12T23:15:51.463Z,84.20
2017-09-12T23:18:20.492Z,84.10
2017-09-12T23:20:48.733Z,84.10
2017-09-12T23:23:17.767Z,84.20
2017-09-12T23:25:46.607Z,84.00
2017-09-12T23:28:14.891Z,84.20
2017-09-12T23:30:43.202Z,84.40
2017-09-12T23:33:12.231Z,84.10
2017-09-12T23:35:40.489Z,84.10
2017-09-12T23:38:09.532Z,84.40
2017-09-12T23:40:37.780Z,84.40
2017-09-12T23:43:06.048Z,84.60
2017-09-12T23:45:34.307Z,84.80
2017-09-12T23:48:03.405Z,85.00
2017-09-12T23:50:31.757Z,85.10
2017-09-12T23:53:00.101Z,85.50
2017-09-12T23:55:28.352Z,85.70
2017-09-12T23:57:56.631Z,85.70
